createdAt,value
2023-02-15T00:01:44.362Z,102489.59
2023-02-15T00:04:14.831Z,102490.09
2023-02-15T00:06:41.441Z,102494.63
2023-02-15T00:09:09.551Z,102486.09
2023-02-15T00:11:43.422Z,102491.94
2023-02-15T00:14:21.713Z,102488.94
2023-02-15T00:16:49.812Z,102482.56
2023-02-15T00:19:18.798Z,102478.88
2023-02-15T00:21:45.958Z,102478.22
2023-02-15T00:24:14.345Z,102471.00
2023-02-15T00:26:42.313Z,102470.84
2023-02-15T00:29:10.029Z,102475.69
2023-02-15T00:31:36.729Z,102474.72
2023-02-15T00:34:11.140Z,102469.50
2023-02-15T00:36:37.703Z,102471.34
2023-02-15T00:39:05.560Z,102474.00
2023-02-15T00:41:33.238Z,102468.84
2023-02-15T00:43:59.972Z,102464.66
2023-02-15T00:46:26.607Z,102473.19
2023-02-15T00:48:53.095Z,102462.00
2023-02-15T00:51:19.660Z,102453.97
2023-02-15T00:53:46.131Z,102458.13
2023-02-15T00:56:13.744Z,102456.13
2023-02-15T00:58:40.272Z,102458.16
2023-02-15T01:01:12.799Z,102464.16
2023-02-15T01:03:39.636Z,102466.34
2023-02-15T01:06:06.143Z,102457.13
2023-02-15T01:08:32.573Z,102456.78
2023-02-15T01:11:07.856Z,102458.59
2023-02-15T01:13:35.069Z,102449.59
2023-02-15T01:16:03.934Z,102444.03
2023-02-15T01:18:31.203Z,102448.75
2023-02-15T01:20:58.477Z,102435.53
2023-02-15T01:23:24.995Z,102442.91
2023-02-15T01:25:51.480Z,102442.56
2023-02-15T01:28:18.602Z,102439.69
2023-02-15T01:30:45.298Z,102434.69
2023-02-15T01:33:18.474Z,102436.69
2023-02-15T01:35:47.921Z,102431.34
2023-02-15T01:38:15.443Z,102437.50
2023-02-15T01:40:42.296Z,102426.31
2023-02-15T01:43:13.370Z,102435.31
2023-02-15T01:45:40.562Z,102426.13
2023-02-15T01:48:28.183Z,102422.31
2023-02-15T01:50:59.424Z,102416.97
2023-02-15T01:53:33.324Z,102413.44
2023-02-15T01:56:10.053Z,102415.63
2023-02-15T01:58:37.966Z,102413.13
2023-02-15T02:01:08.400Z,102416.66
2023-02-15T02:04:03.144Z,102411.78
2023-02-15T02:06:33.028Z,102404.63
2023-02-15T02:09:01.948Z,102401.41
2023-02-15T02:11:28.467Z,102408.44
2023-02-15T02:13:56.543Z,102394.56
2023-02-15T02:16:43.951Z,102388.72
2023-02-15T02:19:25.718Z,102399.09
2023-02-15T02:22:17.276Z,102399.41
2023-02-15T02:25:14.075Z,102394.34
2023-02-15T02:28:19.431Z,102404.84
2023-02-15T02:31:07.217Z,102404.34
2023-02-15T02:33:44.850Z,102393.81
2023-02-15T02:36:41.486Z,102393.19
2023-02-15T02:39:44.566Z,102392.00
2023-02-15T02:42:19.093Z,102382.50
2023-02-15T02:44:50.602Z,102389.19
2023-02-15T02:47:25.014Z,102380.00
2023-02-15T02:50:01.895Z,102374.66
2023-02-15T02:52:43.634Z,102372.81
2023-02-15T02:55:16.521Z,102375.13
2023-02-15T02:58:03.858Z,102360.59
2023-02-15T03:00:35.646Z,102366.94
2023-02-15T03:03:16.048Z,102371.47
2023-02-15T03:05:47.265Z,102369.59
2023-02-15T03:08:22.602Z,102366.25
2023-02-15T03:10:53.699Z,102363.75
2023-02-15T03:13:21.532Z,102355.41
2023-02-15T03:16:10.542Z,102345.53
2023-02-15T03:18:58.750Z,102352.06
2023-02-15T03:21:32.181Z,102348.22
2023-02-15T03:24:05.735Z,102346.72
2023-02-15T03:26:35.141Z,102346.34
2023-02-15T03:29:04.949Z,102345.34
2023-02-15T03:31:35.495Z,102341.03
2023-02-15T03:34:05.837Z,102338.16
2023-02-15T03:36:44.815Z,102338.16
2023-02-15T03:39:20.886Z,102343.00
2023-02-15T03:41:56.521Z,102345.84
2023-02-15T03:44:30.142Z,102346.69
2023-02-15T03:47:04.047Z,102339.13
2023-02-15T03:49:54.702Z,102340.28
2023-02-15T03:52:24.282Z,102340.28
2023-02-15T03:54:51.087Z,102323.25
2023-02-15T03:57:42.153Z,102328.28
2023-02-15T04:00:36.555Z,102326.94
2023-02-15T04:03:29.966Z,102335.97
2023-02-15T04:05:56.456Z,102335.28
2023-02-15T04:08:42.903Z,102330.81
2023-02-15T04:11:09.442Z,102331.44
2023-02-15T04:13:36.475Z,102331.09
2023-02-15T04:16:07.384Z,102333.09
2023-02-15T04:18:56.323Z,102327.56
2023-02-15T04:21:43.500Z,102334.44
2023-02-15T04:24:28.566Z,102336.94
2023-02-15T04:26:55.272Z,102326.44
2023-02-15T04:29:23.264Z,102328.78
2023-02-15T04:31:51.044Z,102326.56
2023-02-15T04:34:17.957Z,102319.56
2023-02-15T04:36:44.671Z,102324.06
2023-02-15T04:39:14.526Z,102312.34
2023-02-15T04:41:41.684Z,102319.03
2023-02-15T04:44:08.206Z,102317.81
2023-02-15T04:46:34.711Z,102317.31
2023-02-15T04:49:01.959Z,102312.44
2023-02-15T04:51:28.504Z,102308.94
2023-02-15T04:53:55.022Z,102309.78
2023-02-15T04:56:21.993Z,102300.47
2023-02-15T04:58:49.206Z,102295.63
2023-02-15T05:01:16.578Z,102296.44
2023-02-15T05:03:43.055Z,102303.63
2023-02-15T05:06:09.470Z,102299.97
2023-02-15T05:08:35.894Z,102293.94
2023-02-15T05:11:02.264Z,102294.13
2023-02-15T05:13:28.689Z,102292.78
2023-02-15T05:15:55.288Z,102292.78
2023-02-15T05:18:22.806Z,102295.63
2023-02-15T05:20:50.004Z,102290.44
2023-02-15T05:23:16.591Z,102280.41
2023-02-15T05:26:06.676Z,102284.28
2023-02-15T05:28:33.576Z,102274.25
2023-02-15T05:31:08.957Z,102276.47
2023-02-15T05:33:35.680Z,102278.47
2023-02-15T05:36:03.272Z,102280.03
2023-02-15T05:38:30.457Z,102281.69
2023-02-15T05:40:57.024Z,102279.53
2023-02-15T05:43:24.202Z,102269.03
2023-02-15T05:45:53.121Z,102268.16
2023-02-15T05:48:20.669Z,102270.84
2023-02-15T05:50:47.281Z,102274.53
2023-02-15T05:53:13.884Z,102269.34
2023-02-15T05:55:41.329Z,102270.69
2023-02-15T05:58:08.795Z,102274.19
2023-02-15T06:00:37.990Z,102264.50
2023-02-15T06:03:04.575Z,102275.03
2023-02-15T06:05:31.016Z,102274.53
2023-02-15T06:07:57.446Z,102267.50
2023-02-15T06:10:23.865Z,102267.00
2023-02-15T06:12:50.439Z,102270.03
2023-02-15T06:15:17.152Z,102274.34
2023-02-15T06:17:43.955Z,102278.88
2023-02-15T06:20:11.116Z,102269.00
2023-02-15T06:22:37.539Z,102262.00
2023-02-15T06:25:04.507Z,102265.00
2023-02-15T06:27:30.922Z,102260.63
2023-02-15T06:29:57.557Z,102266.84
2023-02-15T06:32:24.029Z,102257.97
2023-02-15T06:34:50.520Z,102272.19
2023-02-15T06:37:17.030Z,102273.69
2023-02-15T06:39:43.974Z,102276.50
2023-02-15T06:42:10.429Z,102267.81
2023-02-15T06:44:36.881Z,102256.81
2023-02-15T06:47:03.830Z,102270.19
2023-02-15T06:49:30.266Z,102266.34
2023-02-15T06:51:56.744Z,102272.03
2023-02-15T06:54:23.172Z,102271.16
2023-02-15T06:56:49.992Z,102272.84
2023-02-15T06:59:16.727Z,102269.69
2023-02-15T07:01:43.225Z,102268.50
2023-02-15T07:04:10.231Z,102274.69
2023-02-15T07:06:36.860Z,102264.66
2023-02-15T07:09:03.475Z,102273.50
2023-02-15T07:11:48.627Z,102258.63
2023-02-15T07:14:15.654Z,102264.13
2023-02-15T07:16:42.117Z,102270.19
2023-02-15T07:19:08.628Z,102287.56
2023-02-15T07:21:35.971Z,102281.22
2023-02-15T07:24:03.441Z,102280.03
2023-02-15T07:26:32.673Z,102273.19
2023-02-15T07:28:59.123Z,102274.19
2023-02-15T07:31:25.638Z,102272.16
2023-02-15T07:33:52.083Z,102270.50
2023-02-15T07:36:18.765Z,102275.69
2023-02-15T07:38:45.886Z,102272.81
2023-02-15T07:41:14.361Z,102271.16
2023-02-15T07:43:43.313Z,102265.47
2023-02-15T07:46:12.633Z,102264.94
2023-02-15T07:48:39.938Z,102262.94
2023-02-15T07:51:09.796Z,102254.38
2023-02-15T07:53:37.355Z,102252.75
2023-02-15T07:56:07.257Z,102246.19
2023-02-15T07:58:52.297Z,102254.53
2023-02-15T08:01:21.044Z,102246.66
2023-02-15T08:03:47.865Z,102243.13
2023-02-15T08:06:14.547Z,102234.25
2023-02-15T08:08:42.132Z,102238.72
2023-02-15T08:11:33.606Z,102231.69
2023-02-15T08:14:04.846Z,102230.78
2023-02-15T08:16:37.122Z,102228.13
2023-02-15T08:19:12.191Z,102225.41
2023-02-15T08:21:41.871Z,102219.53
2023-02-15T08:24:09.852Z,102218.66
2023-02-15T08:26:37.391Z,102224.31
2023-02-15T08:29:04.382Z,102217.44
2023-02-15T08:31:30.857Z,102213.94
2023-02-15T08:33:58.256Z,102218.22
2023-02-15T08:36:28.407Z,102216.59
2023-02-15T08:38:55.458Z,102220.38
2023-02-15T08:41:28.023Z,102220.91
2023-02-15T08:43:56.229Z,102211.34
2023-02-15T08:46:24.507Z,102214.31
2023-02-15T08:48:51.657Z,102217.59
2023-02-15T08:51:21.259Z,102210.56
2023-02-15T08:53:50.307Z,102218.91
2023-02-15T08:56:17.919Z,102218.06
2023-02-15T08:58:44.651Z,102217.53
2023-02-15T09:01:13.241Z,102216.16
2023-02-15T09:03:40.212Z,102213.78
2023-02-15T09:06:07.850Z,102221.56
2023-02-15T09:08:34.263Z,102219.13
2023-02-15T09:11:31.262Z,102213.78
2023-02-15T09:14:00.418Z,102202.88
2023-02-15T09:16:31.519Z,102205.94
2023-02-15T09:19:05.652Z,102208.81
2023-02-15T09:21:33.249Z,102200.31
2023-02-15T09:24:02.375Z,102204.84
2023-02-15T09:26:35.881Z,102199.38
2023-02-15T09:29:04.563Z,102196.41
2023-02-15T09:31:34.663Z,102199.00
2023-02-15T09:34:02.425Z,102199.00
2023-02-15T09:36:37.296Z,102194.28
2023-02-15T09:39:11.886Z,102205.13
2023-02-15T09:41:56.511Z,102205.56
2023-02-15T09:44:33.873Z,102206.47
2023-02-15T09:47:00.324Z,102205.63
2023-02-15T09:49:44.757Z,102197.84
2023-02-15T09:52:43.526Z,102201.03
2023-02-15T09:55:43.672Z,102200.03
2023-02-15T09:58:37.072Z,102197.81
2023-02-15T10:01:20.549Z,102200.34
2023-02-15T10:04:13.891Z,102200.69
2023-02-15T10:07:31.377Z,102199.13
2023-02-15T10:10:01.347Z,102193.81
2023-02-15T10:12:50.598Z,102191.59
2023-02-15T10:15:51.917Z,102196.66
2023-02-15T10:18:32.921Z,102193.63
2023-02-15T10:21:11.774Z,102187.00
2023-02-15T10:24:03.386Z,102187.94
2023-02-15T10:26:43.855Z,102184.19
2023-02-15T10:29:28.626Z,102191.63
2023-02-15T10:32:18.722Z,102193.94
2023-02-15T10:35:19.152Z,102187.16
2023-02-15T10:38:21.556Z,102182.69
2023-02-15T10:41:17.054Z,102187.94
2023-02-15T10:44:18.180Z,102182.09
2023-02-15T10:47:06.228Z,102187.09
2023-02-15T10:49:51.166Z,102180.16
2023-02-15T10:52:41.577Z,102177.00
2023-02-15T10:55:24.622Z,102180.38
2023-02-15T10:58:26.831Z,102168.94
2023-02-15T11:01:21.279Z,102179.34
2023-02-15T11:04:34.130Z,102178.16
2023-02-15T11:07:06.069Z,102172.34
2023-02-15T11:09:50.027Z,102174.63
2023-02-15T11:12:22.556Z,102177.13
2023-02-15T11:15:04.514Z,102175.69
2023-02-15T11:17:42.594Z,102172.97
2023-02-15T11:20:22.910Z,102161.16
2023-02-15T11:22:52.102Z,102164.09
2023-02-15T11:25:24.006Z,102168.84
2023-02-15T11:27:51.051Z,102172.19
2023-02-15T11:30:23.707Z,102162.63
2023-02-15T11:32:55.292Z,102153.06
2023-02-15T11:35:28.708Z,102147.25
2023-02-15T11:38:18.226Z,102151.00
2023-02-15T11:40:57.166Z,102144.34
2023-02-15T11:43:26.222Z,102146.03
2023-02-15T11:45:52.806Z,102136.84
2023-02-15T11:48:19.290Z,102136.25
2023-02-15T11:50:47.048Z,102136.63
2023-02-15T11:53:18.009Z,102128.16
2023-02-15T11:55:47.693Z,102118.59
2023-02-15T11:58:48.661Z,102131.25
2023-02-15T12:01:37.863Z,102127.91
2023-02-15T12:04:22.761Z,102125.97
2023-02-15T12:07:13.292Z,102125.34
2023-02-15T12:10:05.042Z,102127.00
2023-02-15T12:12:34.084Z,102136.28
2023-02-15T12:15:04.246Z,102126.53
2023-02-15T12:17:52.743Z,102133.28
2023-02-15T12:20:19.168Z,102130.97
2023-02-15T12:22:55.419Z,102123.28
2023-02-15T12:25:27.554Z,102125.97
2023-02-15T12:27:54.294Z,102123.69
2023-02-15T12:30:36.962Z,102117.56
2023-02-15T12:33:17.838Z,102118.38
2023-02-15T12:35:45.190Z,102110.25
2023-02-15T12:38:12.111Z,102111.78
2023-02-15T12:40:39.368Z,102116.13
2023-02-15T12:43:09.812Z,102115.41
2023-02-15T12:45:38.397Z,102101.72
2023-02-15T12:48:13.908Z,102101.63
2023-02-15T12:50:54.747Z,102092.81
2023-02-15T12:53:34.483Z,102087.38
2023-02-15T12:56:03.756Z,102086.06
2023-02-15T12:58:35.068Z,102076.28
2023-02-15T13:01:25.368Z,102071.16
2023-02-15T13:04:21.193Z,102070.16
2023-02-15T13:06:50.542Z,102069.25
2023-02-15T13:09:25.979Z,102065.75
2023-02-15T13:11:52.685Z,102062.56
2023-02-15T13:14:20.792Z,102065.19
2023-02-15T13:16:49.989Z,102057.69
2023-02-15T13:19:19.777Z,102051.19
2023-02-15T13:21:50.485Z,102054.28
2023-02-15T13:24:25.464Z,102051.41
2023-02-15T13:27:03.464Z,102048.69
2023-02-15T13:29:40.408Z,102050.81
2023-02-15T13:32:18.140Z,102042.72
2023-02-15T13:34:44.605Z,102039.13
2023-02-15T13:37:21.840Z,102037.78
2023-02-15T13:39:56.436Z,102034.44
2023-02-15T13:42:37.184Z,102028.03
2023-02-15T13:45:24.286Z,102024.22
2023-02-15T13:48:09.600Z,102015.16
2023-02-15T13:50:48.202Z,102020.63
2023-02-15T13:53:49.293Z,102020.94
2023-02-15T13:56:41.821Z,102015.16
2023-02-15T13:59:57.014Z,102031.97
2023-02-15T14:03:03.662Z,102021.53
2023-02-15T14:05:41.499Z,102017.47
2023-02-15T14:08:45.785Z,102016.44
2023-02-15T14:11:22.775Z,102014.91
2023-02-15T14:14:02.609Z,102014.44
2023-02-15T14:17:05.810Z,102016.25
2023-02-15T14:19:50.928Z,102016.84
2023-02-15T14:22:39.242Z,102011.41
2023-02-15T14:25:36.057Z,102003.66
2023-02-15T14:28:17.209Z,102006.94
2023-02-15T14:30:48.878Z,102003.06
2023-02-15T14:33:15.532Z,102005.06
2023-02-15T14:35:43.740Z,101999.38
2023-02-15T14:38:27.211Z,102001.50
2023-02-15T14:41:24.050Z,101992.53
2023-02-15T14:44:00.686Z,101994.31
2023-02-15T14:46:53.804Z,101995.53
2023-02-15T14:49:28.811Z,101999.13
2023-02-15T14:51:58.409Z,101992.22
2023-02-15T14:54:24.758Z,102000.34
2023-02-15T14:57:03.399Z,102000.22
2023-02-15T14:59:47.199Z,102001.03
2023-02-15T15:02:21.711Z,101996.28
2023-02-15T15:05:20.783Z,102001.13
2023-02-15T15:07:53.268Z,102004.66
2023-02-15T15:10:20.921Z,101984.09
2023-02-15T15:12:52.119Z,101985.59
2023-02-15T15:15:27.795Z,101983.72
2023-02-15T15:17:56.131Z,101980.66
2023-02-15T15:20:51.597Z,101979.22
2023-02-15T15:23:21.898Z,101979.25
2023-02-15T15:26:12.468Z,101973.66
2023-02-15T15:28:38.861Z,101976.69
2023-02-15T15:31:27.075Z,101976.78
2023-02-15T15:33:59.742Z,101977.22
2023-02-15T15:36:51.597Z,101973.69
2023-02-15T15:39:52.084Z,101976.72
2023-02-15T15:42:33.058Z,101972.88
2023-02-15T15:45:24.299Z,101968.84
2023-02-15T15:48:01.827Z,101968.06
2023-02-15T15:50:32.738Z,101969.22
2023-02-15T15:53:02.600Z,101972.22
2023-02-15T15:55:32.949Z,101973.34
2023-02-15T15:58:08.670Z,101969.66
2023-02-15T16:00:45.399Z,101952.28
2023-02-15T16:03:16.766Z,101949.63
2023-02-15T16:05:43.350Z,101946.34
2023-02-15T16:08:09.799Z,101947.84
2023-02-15T16:10:38.574Z,101954.81
2023-02-15T16:13:07.924Z,101941.78
2023-02-15T16:15:45.472Z,101943.94
2023-02-15T16:18:18.340Z,101952.78
2023-02-15T16:20:53.876Z,101954.69
2023-02-15T16:23:36.705Z,101959.13
2023-02-15T16:26:32.010Z,101955.88
2023-02-15T16:28:59.908Z,101946.97
2023-02-15T16:31:27.272Z,101955.53
2023-02-15T16:33:55.975Z,101952.66
2023-02-15T16:36:28.455Z,101949.56
2023-02-15T16:38:57.591Z,101948.16
2023-02-15T16:41:30.969Z,101950.03
2023-02-15T16:44:02.085Z,101960.06
2023-02-15T16:46:32.464Z,101949.09
2023-02-15T16:49:05.984Z,101951.59
2023-02-15T16:51:35.014Z,101945.38
2023-02-15T16:54:08.773Z,101949.31
2023-02-15T16:56:37.094Z,101940.63
2023-02-15T16:59:04.233Z,101940.66
2023-02-15T17:01:33.206Z,101944.22
2023-02-15T17:04:28.632Z,101947.97
2023-02-15T17:07:04.372Z,101945.53
2023-02-15T17:09:31.545Z,101943.88
2023-02-15T17:12:00.562Z,101944.31
2023-02-15T17:14:32.148Z,101938.09
2023-02-15T17:17:07.068Z,101938.94
2023-02-15T17:19:44.275Z,101939.56
2023-02-15T17:22:20.977Z,101942.06
2023-02-15T17:24:49.360Z,101937.34
2023-02-15T17:27:22.074Z,101934.66
2023-02-15T17:29:52.944Z,101942.50
2023-02-15T17:32:26.023Z,101945.00
2023-02-15T17:35:21.386Z,101939.00
2023-02-15T17:37:50.728Z,101937.38
2023-02-15T17:40:35.719Z,101934.69
2023-02-15T17:43:02.447Z,101946.91
2023-02-15T17:45:43.476Z,101943.78
2023-02-15T17:48:21.098Z,101937.59
2023-02-15T17:50:47.894Z,101938.63
2023-02-15T17:53:17.937Z,101932.19
2023-02-15T17:55:45.200Z,101942.34
2023-02-15T17:58:12.552Z,101931.16
2023-02-15T18:01:03.945Z,101932.81
2023-02-15T18:03:55.285Z,101938.19
2023-02-15T18:06:40.360Z,101935.09
2023-02-15T18:09:29.533Z,101937.59
2023-02-15T18:11:56.544Z,101928.03
2023-02-15T18:14:23.036Z,101927.41
2023-02-15T18:16:49.815Z,101931.53
2023-02-15T18:19:23.630Z,101927.00
2023-02-15T18:21:52.477Z,101922.41
2023-02-15T18:24:21.424Z,101926.97
2023-02-15T18:26:49.491Z,101925.50
2023-02-15T18:29:16.094Z,101928.19
2023-02-15T18:31:45.562Z,101931.47
2023-02-15T18:34:27.233Z,101926.72
2023-02-15T18:36:54.361Z,101933.31
2023-02-15T18:39:27.658Z,101922.13
2023-02-15T18:41:54.154Z,101913.44
2023-02-15T18:44:20.823Z,101912.81
2023-02-15T18:46:47.390Z,101905.38
2023-02-15T18:49:13.820Z,101911.19
2023-02-15T18:51:41.007Z,101894.84
2023-02-15T18:54:17.478Z,101901.47
2023-02-15T18:56:46.337Z,101896.94
2023-02-15T18:59:16.407Z,101904.59
2023-02-15T19:01:43.244Z,101901.06
2023-02-15T19:04:09.731Z,101909.56
2023-02-15T19:06:40.292Z,101904.19
2023-02-15T19:09:13.520Z,101900.88
2023-02-15T19:11:40.117Z,101910.41
2023-02-15T19:14:22.599Z,101906.47
2023-02-15T19:16:49.337Z,101900.03
2023-02-15T19:19:15.992Z,101898.38
2023-02-15T19:21:42.523Z,101897.34
2023-02-15T19:24:17.234Z,101895.88
2023-02-15T19:26:46.279Z,101881.38
2023-02-15T19:29:15.708Z,101882.59
2023-02-15T19:31:42.592Z,101886.94
2023-02-15T19:34:14.710Z,101870.22
2023-02-15T19:36:43.452Z,101876.19
2023-02-15T19:39:23.454Z,101884.50
2023-02-15T19:41:50.111Z,101876.81
2023-02-15T19:44:18.382Z,101872.69
2023-02-15T19:46:45.980Z,101875.16
2023-02-15T19:49:12.909Z,101871.66
2023-02-15T19:51:40.192Z,101870.22
2023-02-15T19:54:31.525Z,101874.56
2023-02-15T19:56:58.180Z,101882.81
2023-02-15T19:59:26.099Z,101874.75
2023-02-15T20:01:53.099Z,101869.16
2023-02-15T20:04:20.157Z,101874.34
2023-02-15T20:06:48.744Z,101869.16
2023-02-15T20:09:20.380Z,101879.34
2023-02-15T20:11:47.747Z,101879.13
2023-02-15T20:14:15.094Z,101879.31
2023-02-15T20:16:41.686Z,101894.66
2023-02-15T20:19:08.704Z,101890.06
2023-02-15T20:21:36.193Z,101882.63
2023-02-15T20:24:03.830Z,101888.41
2023-02-15T20:26:32.244Z,101886.97
2023-02-15T20:28:59.560Z,101884.50
2023-02-15T20:31:26.211Z,101890.50
2023-02-15T20:33:53.221Z,101886.59
2023-02-15T20:36:22.353Z,101884.91
2023-02-15T20:38:49.506Z,101890.09
2023-02-15T20:41:37.421Z,101893.19
2023-02-15T20:44:19.729Z,101888.63
2023-02-15T20:46:47.342Z,101894.66
2023-02-15T20:49:13.911Z,101893.38
2023-02-15T20:51:41.619Z,101896.28
2023-02-15T20:54:12.652Z,101891.97
2023-02-15T20:56:39.199Z,101893.59
2023-02-15T20:59:19.059Z,101890.69
2023-02-15T21:01:45.495Z,101889.69
2023-02-15T21:04:21.776Z,101886.97
2023-02-15T21:06:48.452Z,101892.56
2023-02-15T21:09:16.447Z,101899.81
2023-02-15T21:11:56.397Z,101889.91
2023-02-15T21:14:25.792Z,101890.91
2023-02-15T21:16:52.767Z,101888.84
2023-02-15T21:19:22.975Z,101890.28
2023-02-15T21:21:52.026Z,101892.56
2023-02-15T21:24:29.057Z,101897.34
2023-02-15T21:26:58.338Z,101891.75
2023-02-15T21:29:27.953Z,101895.47
2023-02-15T21:31:54.870Z,101892.16
2023-02-15T21:34:21.553Z,101899.63
2023-02-15T21:36:50.483Z,101897.53
2023-02-15T21:39:29.343Z,101903.31
2023-02-15T21:42:15.044Z,101919.88
2023-02-15T21:45:00.289Z,101924.44
2023-02-15T21:47:49.808Z,101924.63
2023-02-15T21:50:37.794Z,101923.16
2023-02-15T21:53:06.364Z,101923.78
2023-02-15T21:55:33.084Z,101928.09
2023-02-15T21:58:00.851Z,101924.56
2023-02-15T22:00:30.498Z,101928.03
2023-02-15T22:02:59.454Z,101908.97
2023-02-15T22:05:29.238Z,101918.50
2023-02-15T22:07:57.165Z,101914.56
2023-02-15T22:10:29.257Z,101915.63
2023-02-15T22:12:55.928Z,101916.03
2023-02-15T22:15:24.761Z,101915.19
2023-02-15T22:17:57.380Z,101907.09
2023-02-15T22:20:24.848Z,101912.72
2023-02-15T22:22:53.229Z,101912.47
2023-02-15T22:25:23.066Z,101908.75
2023-02-15T22:27:51.591Z,101907.16
2023-02-15T22:30:32.131Z,101901.09
2023-02-15T22:32:59.925Z,101899.19
2023-02-15T22:35:28.371Z,101902.31
2023-02-15T22:37:55.264Z,101903.09
2023-02-15T22:40:27.862Z,101901.22
2023-02-15T22:42:54.910Z,101900.59
2023-02-15T22:45:24.366Z,101904.53
2023-02-15T22:47:56.854Z,101907.22
2023-02-15T22:50:27.492Z,101906.41
2023-02-15T22:52:54.870Z,101899.13
2023-02-15T22:55:24.997Z,101906.56
2023-02-15T22:57:54.383Z,101899.75
2023-02-15T23:00:24.143Z,101905.91
2023-02-15T23:02:50.804Z,101900.50
2023-02-15T23:05:25.037Z,101905.63
2023-02-15T23:07:51.874Z,101905.41
2023-02-15T23:10:23.201Z,101908.69
2023-02-15T23:13:18.450Z,101913.56
2023-02-15T23:15:49.039Z,101908.97
2023-02-15T23:18:18.871Z,101898.84
2023-02-15T23:20:48.605Z,101906.28
2023-02-15T23:23:15.449Z,101902.78
2023-02-15T23:25:42.213Z,101904.44
2023-02-15T23:28:20.780Z,101897.59
2023-02-15T23:30:48.059Z,101898.22
2023-02-15T23:33:14.675Z,101891.22
2023-02-15T23:35:41.221Z,101887.13
2023-02-15T23:38:25.489Z,101895.38
2023-02-15T23:41:16.799Z,101893.13
2023-02-15T23:43:46.643Z,101892.13
2023-02-15T23:46:41.018Z,101899.16
2023-02-15T23:49:17.563Z,101898.53
2023-02-15T23:51:53.051Z,101895.88
2023-02-15T23:54:22.162Z,101892.75
2023-02-15T23:56:54.942Z,101886.13
2023-02-15T23:59:27.161Z,101882.44
